createdAt,value
2023-04-15T00:00:15.586Z,4.1703
2023-04-15T00:01:17.934Z,4.0990
2023-04-15T00:02:20.536Z,3.9953
2023-04-15T00:03:23.030Z,4.1642
2023-04-15T00:04:25.042Z,4.4947
2023-04-15T00:05:27.252Z,3.3799
2023-04-15T00:06:29.584Z,3.3687
2023-04-15T00:07:31.933Z,4.3862
2023-04-15T00:08:34.257Z,4.5980
2023-04-15T00:09:36.577Z,4.1375
2023-04-15T00:10:38.917Z,3.6683
2023-04-15T00:11:41.251Z,3.6967
2023-04-15T00:12:43.586Z,3.5400
2023-04-15T00:13:45.905Z,3.4881
2023-04-15T00:14:48.232Z,3.5196
2023-04-15T00:15:50.576Z,3.1162
2023-04-15T00:16:52.912Z,3.4228
2023-04-15T00:17:55.259Z,3.4003
2023-04-15T00:18:57.656Z,3.1549
2023-04-15T00:19:59.886Z,3.2818
2023-04-15T00:21:02.277Z,3.6993
2023-04-15T00:22:04.550Z,5.2663
2023-04-15T00:23:06.898Z,5.7740
2023-04-15T00:24:09.237Z,7.2306
2023-04-15T00:25:11.582Z,7.8674
2023-04-15T00:26:13.917Z,5.6427
2023-04-15T00:27:16.240Z,5.1381
2023-04-15T00:28:18.577Z,5.9584
2023-04-15T00:29:20.907Z,4.7346
2023-04-15T00:30:23.233Z,3.6263
2023-04-15T00:31:25.690Z,3.4024
2023-04-15T00:32:27.937Z,3.2543
2023-04-15T00:33:30.237Z,2.6342
2023-04-15T00:34:32.584Z,2.8461
2023-04-15T00:35:34.907Z,2.9780
2023-04-15T00:36:37.253Z,2.8948
2023-04-15T00:37:39.575Z,2.9758
2023-04-15T00:38:41.914Z,3.1453
2023-04-15T00:39:44.242Z,3.0759
2023-04-15T00:40:46.590Z,3.0043
2023-04-15T00:41:48.928Z,3.0582
2023-04-15T00:42:51.241Z,2.6964
2023-04-15T00:43:53.573Z,2.8033
2023-04-15T00:44:55.905Z,2.7797
2023-04-15T00:45:58.327Z,8.9959
2023-04-15T00:47:00.570Z,4.4499
2023-04-15T00:48:02.918Z,3.8156
2023-04-15T00:49:05.234Z,3.9097
2023-04-15T00:50:07.557Z,4.0715
2023-04-15T00:51:09.923Z,3.3062
2023-04-15T00:52:12.233Z,3.0192
2023-04-15T00:53:14.544Z,3.0414
2023-04-15T00:54:16.873Z,3.1398
2023-04-15T00:55:19.217Z,2.6329
2023-04-15T00:56:21.534Z,2.5867
2023-04-15T00:57:23.890Z,2.6993
2023-04-15T00:58:26.203Z,2.5721
2023-04-15T00:59:28.537Z,3.1501
2023-04-15T01:00:30.865Z,2.9384
2023-04-15T01:01:33.242Z,2.6226
2023-04-15T01:02:35.642Z,2.4717
2023-04-15T01:03:38.118Z,2.6450
2023-04-15T01:04:40.194Z,2.6627
2023-04-15T01:05:42.521Z,2.3162
2023-04-15T01:06:44.861Z,2.7042
2023-04-15T01:07:47.207Z,2.4624
2023-04-15T01:08:49.517Z,2.3689
2023-04-15T01:09:51.848Z,2.5327
2023-04-15T01:10:54.176Z,2.9920
2023-04-15T01:11:56.510Z,2.6952
2023-04-15T01:12:58.855Z,2.6788
2023-04-15T01:14:01.178Z,2.8563
2023-04-15T01:15:03.505Z,2.7309
2023-04-15T01:16:05.874Z,2.4564
2023-04-15T01:17:08.176Z,2.6613
2023-04-15T01:18:10.507Z,2.4082
2023-04-15T01:19:12.832Z,2.1835
2023-04-15T01:20:15.174Z,2.1728
2023-04-15T01:21:17.496Z,1.7594
2023-04-15T01:22:19.835Z,2.1135
2023-04-15T01:23:22.162Z,2.3085
2023-04-15T01:24:24.485Z,2.3791
2023-04-15T01:25:26.830Z,2.1015
2023-04-15T01:26:29.156Z,2.2126
2023-04-15T01:27:31.478Z,2.5525
2023-04-15T01:28:33.810Z,2.0906
2023-04-15T01:29:36.145Z,2.3112
2023-04-15T01:30:38.504Z,2.3032
2023-04-15T01:31:40.841Z,2.2312
2023-04-15T01:32:43.184Z,2.1581
2023-04-15T01:33:45.480Z,2.2453
2023-04-15T01:34:47.804Z,2.4936
2023-04-15T01:35:50.159Z,2.0348
2023-04-15T01:36:52.495Z,2.2331
2023-04-15T01:37:54.805Z,2.1935
2023-04-15T01:38:57.142Z,1.9380
2023-04-15T01:39:59.473Z,2.2429
2023-04-15T01:41:01.866Z,2.0436
2023-04-15T01:42:04.148Z,2.2754
2023-04-15T01:43:06.477Z,2.1082
2023-04-15T01:44:08.817Z,2.2463
2023-04-15T01:45:11.144Z,2.3696
2023-04-15T01:46:13.517Z,2.0188
2023-04-15T01:47:15.806Z,2.4367
2023-04-15T01:48:18.142Z,2.4662
2023-04-15T01:49:20.497Z,1.9740
2023-04-15T01:50:22.813Z,2.2859
2023-04-15T01:51:25.139Z,2.0460
2023-04-15T01:52:27.474Z,1.7588
2023-04-15T01:53:29.808Z,2.1346
2023-04-15T01:54:32.159Z,2.4104
2023-04-15T01:55:34.474Z,2.3399
2023-04-15T01:56:36.828Z,2.2571
2023-04-15T01:57:39.146Z,2.1006
2023-04-15T01:58:41.473Z,2.2328
2023-04-15T01:59:43.814Z,2.2741
2023-04-15T02:00:46.154Z,2.1758
2023-04-15T02:01:48.511Z,2.1185
2023-04-15T02:02:50.856Z,2.1003
2023-04-15T02:03:53.181Z,2.0868
2023-04-15T02:04:55.479Z,2.0722
2023-04-15T02:05:57.817Z,2.4370
2023-04-15T02:07:00.271Z,2.3125
2023-04-15T02:08:02.562Z,2.3677
2023-04-15T02:09:04.893Z,1.8488
2023-04-15T02:10:07.236Z,1.7149
2023-04-15T02:11:09.567Z,1.7861
2023-04-15T02:12:11.927Z,1.9351
2023-04-15T02:13:14.255Z,2.5801
2023-04-15T02:14:16.579Z,2.4123
2023-04-15T02:15:18.917Z,2.5531
2023-04-15T02:16:21.333Z,2.2408
2023-04-15T02:17:23.608Z,2.3103
2023-04-15T02:18:25.937Z,2.3564
2023-04-15T02:19:28.248Z,2.0620
2023-04-15T02:20:30.584Z,2.0924
2023-04-15T02:21:32.924Z,2.4226
2023-04-15T02:22:35.286Z,2.1052
2023-04-15T02:23:37.593Z,1.7851
2023-04-15T02:24:39.925Z,2.1242
2023-04-15T02:25:42.267Z,2.1885
2023-04-15T02:26:44.612Z,2.0095
2023-04-15T02:27:46.974Z,2.0355
2023-04-15T02:28:49.265Z,2.2928
2023-04-15T02:29:51.602Z,2.2194
2023-04-15T02:30:53.946Z,2.0390
2023-04-15T02:31:56.342Z,1.9307
2023-04-15T02:32:58.667Z,2.1208
2023-04-15T02:34:00.944Z,1.9369
2023-04-15T02:35:03.357Z,1.8779
2023-04-15T02:36:05.614Z,1.7573
2023-04-15T02:37:07.952Z,1.8091
2023-04-15T02:38:10.296Z,1.5515
2023-04-15T02:39:12.633Z,1.7736
2023-04-15T02:40:14.970Z,1.7665
2023-04-15T02:41:17.305Z,1.6941
2023-04-15T02:42:19.640Z,1.6685
2023-04-15T02:43:22.092Z,1.7521
2023-04-15T02:44:24.310Z,1.6420
2023-04-15T02:45:26.658Z,1.8101
2023-04-15T02:46:29.095Z,1.8705
2023-04-15T02:47:31.359Z,1.9997
2023-04-15T02:48:33.696Z,1.7951
2023-04-15T02:49:35.993Z,1.6996
2023-04-15T02:50:38.698Z,1.7559
2023-04-15T02:51:40.673Z,1.6738
2023-04-15T02:52:43.008Z,1.6081
2023-04-15T02:53:45.343Z,1.8115
2023-04-15T02:54:47.680Z,1.7011
2023-04-15T02:55:50.039Z,2.0176
2023-04-15T02:56:52.360Z,1.7825
2023-04-15T02:57:54.697Z,1.7440
2023-04-15T02:58:57.037Z,1.8447
2023-04-15T02:59:59.360Z,1.9292
2023-04-15T03:01:01.738Z,1.6907
2023-04-15T03:02:04.069Z,1.8338
2023-04-15T03:03:06.724Z,1.7511
2023-04-15T03:04:08.840Z,1.8034
2023-04-15T03:05:11.055Z,1.9807
2023-04-15T03:06:13.429Z,1.7899
2023-04-15T03:07:15.741Z,1.8412
2023-04-15T03:08:18.070Z,1.8460
2023-04-15T03:09:20.414Z,1.8096
2023-04-15T03:10:22.762Z,1.7971
2023-04-15T03:11:25.097Z,1.8604
2023-04-15T03:12:27.420Z,1.8021
2023-04-15T03:13:29.749Z,1.4377
2023-04-15T03:14:32.117Z,1.5837
2023-04-15T03:15:34.431Z,1.8339
2023-04-15T03:16:36.776Z,1.8369
2023-04-15T03:17:39.134Z,1.4614
2023-04-15T03:18:41.419Z,1.4311
2023-04-15T03:19:43.762Z,1.8713
2023-04-15T03:20:46.128Z,1.8306
2023-04-15T03:21:48.448Z,1.5220
2023-04-15T03:22:50.772Z,1.6571
2023-04-15T03:23:53.206Z,1.7718
2023-04-15T03:24:55.439Z,1.7292
2023-04-15T03:25:57.782Z,1.8067
2023-04-15T03:27:00.139Z,1.7128
2023-04-15T03:28:02.446Z,1.6758
2023-04-15T03:29:04.787Z,1.7778
2023-04-15T03:30:07.125Z,1.9921
2023-04-15T03:31:09.488Z,1.8654
2023-04-15T03:32:11.818Z,1.8497
2023-04-15T03:33:14.129Z,1.8215
2023-04-15T03:34:16.484Z,1.9925
2023-04-15T03:35:18.814Z,2.0268
2023-04-15T03:36:21.160Z,1.6448
2023-04-15T03:37:23.486Z,2.0456
2023-04-15T03:38:25.814Z,1.8996
2023-04-15T03:39:28.146Z,1.9464
2023-04-15T03:40:30.492Z,1.7912
2023-04-15T03:41:32.864Z,1.4893
2023-04-15T03:42:35.171Z,1.5617
2023-04-15T03:43:37.496Z,2.0200
2023-04-15T03:44:39.836Z,1.8816
2023-04-15T03:45:42.191Z,1.8185
2023-04-15T03:46:44.598Z,1.5930
2023-04-15T03:47:46.859Z,1.8503
2023-04-15T03:48:49.193Z,1.8385
2023-04-15T03:49:51.519Z,1.7785
2023-04-15T03:50:53.863Z,1.9052
2023-04-15T03:51:56.192Z,2.0257
2023-04-15T03:52:58.534Z,2.3288
2023-04-15T03:54:00.856Z,2.2698
2023-04-15T03:55:03.211Z,2.1431
2023-04-15T03:56:05.527Z,2.2020
2023-04-15T03:57:07.864Z,2.2741
2023-04-15T03:58:10.208Z,2.2182
2023-04-15T03:59:12.527Z,2.0253
2023-04-15T04:00:14.860Z,2.0259
2023-04-15T04:01:17.201Z,2.0367
2023-04-15T04:02:19.582Z,1.9085
2023-04-15T04:03:22.584Z,2.0438
2023-04-15T04:04:24.331Z,2.0848
2023-04-15T04:05:26.525Z,1.9773
2023-04-15T04:06:28.863Z,2.1383
2023-04-15T04:07:31.220Z,2.0359
2023-04-15T04:08:33.646Z,2.1383
2023-04-15T04:09:35.876Z,2.6538
2023-04-15T04:10:38.245Z,2.2314
2023-04-15T04:11:40.572Z,2.3198
2023-04-15T04:12:42.892Z,1.8928
2023-04-15T04:13:45.245Z,1.5863
2023-04-15T04:14:47.559Z,1.8063
2023-04-15T04:15:49.968Z,1.8258
2023-04-15T04:16:52.251Z,1.8302
2023-04-15T04:17:54.620Z,1.5556
2023-04-15T04:18:56.905Z,1.5966
2023-04-15T04:19:59.243Z,1.4935
2023-04-15T04:21:01.585Z,1.5184
2023-04-15T04:22:03.912Z,1.7882
2023-04-15T04:23:06.237Z,1.7818
2023-04-15T04:24:08.588Z,1.7365
2023-04-15T04:25:10.921Z,1.8446
2023-04-15T04:26:13.291Z,1.8451
2023-04-15T04:27:15.584Z,1.7734
2023-04-15T04:28:17.933Z,1.6440
2023-04-15T04:29:20.263Z,1.8287
2023-04-15T04:30:22.597Z,1.8537
2023-04-15T04:31:24.972Z,1.9619
2023-04-15T04:32:27.306Z,1.7264
2023-04-15T04:33:29.621Z,1.8165
2023-04-15T04:34:31.937Z,1.6805
2023-04-15T04:35:34.277Z,1.8068
2023-04-15T04:36:36.622Z,1.8172
2023-04-15T04:37:38.953Z,1.5937
2023-04-15T04:38:41.293Z,1.9543
2023-04-15T04:39:43.625Z,1.8399
2023-04-15T04:40:45.953Z,1.8812
2023-04-15T04:41:48.294Z,2.1886
2023-04-15T04:42:50.625Z,1.9884
2023-04-15T04:43:52.972Z,2.1884
2023-04-15T04:44:55.293Z,2.5336
2023-04-15T04:45:57.674Z,2.9708
2023-04-15T04:46:59.985Z,2.4767
2023-04-15T04:48:02.317Z,2.6847
2023-04-15T04:49:04.919Z,2.6703
2023-04-15T04:50:06.972Z,2.8835
2023-04-15T04:51:09.308Z,2.7495
2023-04-15T04:52:11.682Z,2.6014
2023-04-15T04:53:14.005Z,2.6568
2023-04-15T04:54:16.320Z,2.5619
2023-04-15T04:55:18.648Z,2.1730
2023-04-15T04:56:20.984Z,2.2904
2023-04-15T04:57:23.313Z,2.2720
2023-04-15T04:58:25.649Z,2.0115
2023-04-15T04:59:27.984Z,2.1262
2023-04-15T05:00:30.325Z,2.2500
2023-04-15T05:01:32.701Z,2.0949
2023-04-15T05:02:35.072Z,1.8179
2023-04-15T05:03:37.406Z,2.0982
2023-04-15T05:04:39.665Z,1.7951
2023-04-15T05:05:42.006Z,1.9362
2023-04-15T05:06:44.337Z,2.1299
2023-04-15T05:07:46.669Z,2.2785
2023-04-15T05:08:49.016Z,2.1060
2023-04-15T05:09:51.345Z,2.0837
2023-04-15T05:10:53.700Z,1.7077
2023-04-15T05:11:56.016Z,2.0480
2023-04-15T05:12:58.350Z,1.7111
2023-04-15T05:14:00.686Z,1.7097
2023-04-15T05:15:03.029Z,1.8813
2023-04-15T05:16:05.448Z,1.6008
2023-04-15T05:17:07.705Z,1.7461
2023-04-15T05:18:10.038Z,1.7079
2023-04-15T05:19:12.374Z,1.6636
2023-04-15T05:20:14.708Z,1.7397
2023-04-15T05:21:17.059Z,1.6453
2023-04-15T05:22:19.388Z,1.7252
2023-04-15T05:23:21.721Z,1.9532
2023-04-15T05:24:24.066Z,1.7790
2023-04-15T05:25:26.394Z,2.0389
2023-04-15T05:26:28.739Z,2.1918
2023-04-15T05:27:31.074Z,1.9498
2023-04-15T05:28:33.407Z,2.1677
2023-04-15T05:29:35.741Z,2.0213
2023-04-15T05:30:38.189Z,2.0501
2023-04-15T05:31:40.590Z,2.3518
2023-04-15T05:32:42.781Z,2.1013
2023-04-15T05:33:45.084Z,2.1656
2023-04-15T05:34:47.421Z,2.1318
2023-04-15T05:35:49.754Z,2.0141
2023-04-15T05:36:52.098Z,1.9362
2023-04-15T05:37:54.436Z,2.0440
2023-04-15T05:38:56.755Z,2.1196
2023-04-15T05:39:59.095Z,2.0698
2023-04-15T05:41:01.428Z,2.0195
2023-04-15T05:42:03.782Z,2.4228
2023-04-15T05:43:06.114Z,2.1205
2023-04-15T05:44:08.440Z,2.1074
2023-04-15T05:45:10.776Z,1.9601
2023-04-15T05:46:13.180Z,1.9450
2023-04-15T05:47:15.553Z,2.3302
2023-04-15T05:48:17.794Z,2.3354
2023-04-15T05:49:20.125Z,2.1052
2023-04-15T05:50:22.467Z,1.8379
2023-04-15T05:51:24.815Z,2.3291
2023-04-15T05:52:27.142Z,2.0210
2023-04-15T05:53:29.483Z,1.6843
2023-04-15T05:54:31.811Z,1.8940
2023-04-15T05:55:34.144Z,2.0264
2023-04-15T05:56:36.493Z,1.9610
2023-04-15T05:57:38.827Z,2.0550
2023-04-15T05:58:41.152Z,2.1422
2023-04-15T05:59:43.485Z,1.9808
2023-04-15T06:00:45.826Z,1.8056
2023-04-15T06:01:48.284Z,2.0927
2023-04-15T06:02:50.654Z,1.8325
2023-04-15T06:03:52.972Z,1.6795
2023-04-15T06:04:55.193Z,1.7881
2023-04-15T06:05:57.516Z,1.6253
2023-04-15T06:06:59.847Z,2.2741
2023-04-15T06:08:02.190Z,2.2276
2023-04-15T06:09:04.702Z,2.2331
2023-04-15T06:10:06.869Z,2.0881
2023-04-15T06:11:09.190Z,1.7028
2023-04-15T06:12:11.622Z,1.8841
2023-04-15T06:13:13.949Z,1.7316
2023-04-15T06:14:16.268Z,1.7400
2023-04-15T06:15:18.602Z,1.9596
2023-04-15T06:16:20.979Z,1.9822
2023-04-15T06:17:23.301Z,2.2256
2023-04-15T06:18:25.615Z,2.1934
2023-04-15T06:19:27.941Z,2.0725
2023-04-15T06:20:30.292Z,1.8773
2023-04-15T06:21:32.607Z,2.1953
2023-04-15T06:22:34.952Z,1.9790
2023-04-15T06:23:37.281Z,2.2476
2023-04-15T06:24:39.709Z,1.9929
2023-04-15T06:25:41.957Z,2.2560
2023-04-15T06:26:44.280Z,2.1424
2023-04-15T06:27:46.625Z,2.0829
2023-04-15T06:28:48.954Z,1.9173
2023-04-15T06:29:51.319Z,2.1613
2023-04-15T06:30:53.617Z,2.2362
2023-04-15T06:31:55.981Z,2.0685
2023-04-15T06:32:58.323Z,2.3127
2023-04-15T06:34:00.626Z,2.1312
2023-04-15T06:35:02.998Z,2.0607
2023-04-15T06:36:05.300Z,2.2132
2023-04-15T06:37:07.637Z,2.3964
2023-04-15T06:38:09.977Z,2.6135
2023-04-15T06:39:12.320Z,2.0225
2023-04-15T06:40:14.681Z,2.0085
2023-04-15T06:41:16.979Z,1.9968
2023-04-15T06:42:19.314Z,2.1741
2023-04-15T06:43:21.649Z,2.3285
2023-04-15T06:44:23.988Z,2.3430
2023-04-15T06:45:26.375Z,2.0973
2023-04-15T06:46:28.670Z,2.0948
2023-04-15T06:47:31.061Z,2.0322
2023-04-15T06:48:33.346Z,2.0985
2023-04-15T06:49:35.684Z,2.3743
2023-04-15T06:50:38.023Z,2.3283
2023-04-15T06:51:40.354Z,1.9653
2023-04-15T06:52:42.696Z,2.0428
2023-04-15T06:53:45.031Z,2.1008
2023-04-15T06:54:47.370Z,2.2190
2023-04-15T06:55:49.726Z,2.1892
2023-04-15T06:56:52.040Z,1.8801
2023-04-15T06:57:54.404Z,2.3609
2023-04-15T06:58:56.716Z,2.2998
2023-04-15T06:59:59.056Z,2.1666
2023-04-15T07:01:01.419Z,1.9140
2023-04-15T07:02:03.758Z,1.7985
2023-04-15T07:03:06.110Z,1.8842
2023-04-15T07:04:08.449Z,1.9619
2023-04-15T07:05:10.754Z,2.0546
2023-04-15T07:06:13.110Z,2.0528
2023-04-15T07:07:15.426Z,2.0955
2023-04-15T07:08:17.760Z,2.1073
2023-04-15T07:09:20.091Z,2.2693
2023-04-15T07:10:23.916Z,2.3845
2023-04-15T07:11:24.880Z,2.1467
2023-04-15T07:12:27.115Z,2.2316
2023-04-15T07:13:29.476Z,2.0084
2023-04-15T07:14:31.788Z,2.1487
2023-04-15T07:15:34.134Z,2.2134
2023-04-15T07:16:36.516Z,2.1177
2023-04-15T07:17:38.840Z,2.0939
2023-04-15T07:18:41.141Z,2.1442
2023-04-15T07:19:43.482Z,2.2770
2023-04-15T07:20:45.821Z,2.2400
2023-04-15T07:21:48.173Z,2.1240
2023-04-15T07:22:50.492Z,2.0823
2023-04-15T07:23:52.862Z,2.1992
2023-04-15T07:24:55.177Z,2.2333
2023-04-15T07:25:57.508Z,2.0816
2023-04-15T07:27:01.021Z,2.3163
2023-04-15T07:28:02.169Z,2.2260
2023-04-15T07:29:04.516Z,2.4378
2023-04-15T07:30:06.855Z,2.0167
2023-04-15T07:31:09.261Z,2.2950
2023-04-15T07:32:11.538Z,2.1181
2023-04-15T07:33:13.863Z,1.8727
2023-04-15T07:34:16.207Z,1.9271
2023-04-15T07:35:18.542Z,2.3156
2023-04-15T07:36:20.888Z,2.2366
2023-04-15T07:37:23.240Z,2.1845
2023-04-15T07:38:25.576Z,2.2394
2023-04-15T07:39:27.912Z,2.1867
2023-04-15T07:40:30.249Z,2.0839
2023-04-15T07:41:32.578Z,2.1613
2023-04-15T07:42:34.954Z,2.0888
2023-04-15T07:43:37.264Z,1.8245
2023-04-15T07:44:39.596Z,1.9060
2023-04-15T07:45:41.935Z,2.1287
2023-04-15T07:46:44.271Z,1.9816
2023-04-15T07:47:46.651Z,2.2419
2023-04-15T07:48:48.941Z,1.8567
2023-04-15T07:49:51.275Z,1.8647
2023-04-15T07:50:53.638Z,2.1274
2023-04-15T07:51:55.968Z,1.8579
2023-04-15T07:52:58.296Z,2.4791
2023-04-15T07:54:00.631Z,2.1962
2023-04-15T07:55:02.966Z,2.0456
2023-04-15T07:56:05.306Z,2.0130
2023-04-15T07:57:07.654Z,2.2226
2023-04-15T07:58:09.982Z,1.9086
2023-04-15T07:59:12.324Z,1.8834
2023-04-15T08:00:14.659Z,2.1450
2023-04-15T08:01:17.000Z,2.0984
2023-04-15T08:02:19.421Z,2.1132
2023-04-15T08:03:21.732Z,2.2612
2023-04-15T08:04:24.123Z,2.1367
2023-04-15T08:05:26.363Z,2.2201
2023-04-15T08:06:28.703Z,2.2585
2023-04-15T08:07:31.032Z,2.3166
2023-04-15T08:08:33.409Z,2.0684
2023-04-15T08:09:35.749Z,2.0946
2023-04-15T08:10:38.046Z,2.1019
2023-04-15T08:11:40.386Z,2.1405
2023-04-15T08:12:42.727Z,1.9606
2023-04-15T08:13:45.059Z,1.8394
2023-04-15T08:14:47.409Z,2.0846
2023-04-15T08:15:49.786Z,1.9257
2023-04-15T08:16:52.080Z,2.0549
2023-04-15T08:17:54.468Z,1.9745
2023-04-15T08:18:56.774Z,2.3312
2023-04-15T08:19:59.119Z,2.2207
2023-04-15T08:21:01.423Z,2.2053
2023-04-15T08:22:03.784Z,2.2129
2023-04-15T08:23:06.103Z,2.3012
2023-04-15T08:24:08.499Z,2.1724
2023-04-15T08:25:10.782Z,2.2257
2023-04-15T08:26:13.131Z,2.0039
2023-04-15T08:27:15.473Z,2.3555
2023-04-15T08:28:17.802Z,2.1862
2023-04-15T08:29:20.144Z,2.7025
2023-04-15T08:30:22.482Z,2.5483
2023-04-15T08:31:24.853Z,2.2957
2023-04-15T08:32:27.184Z,2.1540
2023-04-15T08:33:29.515Z,2.3714
2023-04-15T08:34:31.853Z,2.7336
2023-04-15T08:35:34.169Z,2.7626
2023-04-15T08:36:36.507Z,2.3965
2023-04-15T08:37:38.847Z,2.3451
2023-04-15T08:38:41.179Z,2.4242
2023-04-15T08:39:43.528Z,2.2516
2023-04-15T08:40:45.862Z,2.4942
2023-04-15T08:41:48.194Z,2.3370
2023-04-15T08:42:51.192Z,2.3448
2023-04-15T08:43:52.892Z,2.6517
2023-04-15T08:44:55.215Z,2.2083
2023-04-15T08:45:57.619Z,2.1618
2023-04-15T08:46:59.957Z,2.5628
2023-04-15T08:48:02.381Z,2.5766
2023-04-15T08:49:04.841Z,2.5178
2023-04-15T08:50:06.908Z,2.6274
2023-04-15T08:51:09.263Z,2.6359
2023-04-15T08:52:11.586Z,2.5325
2023-04-15T08:53:13.931Z,2.9248
2023-04-15T08:54:16.269Z,2.8042
2023-04-15T08:55:18.622Z,2.7509
2023-04-15T08:56:21.278Z,2.9801
2023-04-15T08:57:23.287Z,2.7233
2023-04-15T08:58:25.629Z,2.6264
2023-04-15T08:59:27.962Z,2.3864
2023-04-15T09:00:30.452Z,2.4362
2023-04-15T09:01:32.679Z,2.9024
2023-04-15T09:02:35.052Z,2.8231
2023-04-15T09:03:37.481Z,2.7013
2023-04-15T09:04:39.654Z,2.8072
2023-04-15T09:05:41.999Z,2.6490
2023-04-15T09:06:44.390Z,2.6616
2023-04-15T09:07:46.764Z,2.6898
2023-04-15T09:08:49.021Z,2.9326
2023-04-15T09:09:51.364Z,3.0249
2023-04-15T09:10:53.706Z,2.7189
2023-04-15T09:11:56.539Z,2.7915
2023-04-15T09:12:58.389Z,2.9217
2023-04-15T09:14:00.745Z,3.0545
2023-04-15T09:15:03.077Z,2.3923
2023-04-15T09:16:05.434Z,2.4714
2023-04-15T09:17:07.796Z,2.6087
2023-04-15T09:18:10.124Z,2.6067
2023-04-15T09:19:12.420Z,2.4750
2023-04-15T09:20:14.792Z,2.7082
2023-04-15T09:21:17.108Z,2.6756
2023-04-15T09:22:19.466Z,2.5984
2023-04-15T09:23:21.795Z,2.6300
2023-04-15T09:24:24.139Z,2.4173
2023-04-15T09:25:26.478Z,2.1018
2023-04-15T09:26:28.819Z,2.2533
2023-04-15T09:27:31.200Z,2.3795
2023-04-15T09:28:33.501Z,2.3919
2023-04-15T09:29:35.849Z,1.9076
2023-04-15T09:30:38.278Z,2.2696
2023-04-15T09:31:40.550Z,2.2031
2023-04-15T09:32:43.002Z,2.0524
2023-04-15T09:33:45.216Z,2.2872
2023-04-15T09:34:47.551Z,1.9612
2023-04-15T09:35:49.885Z,2.0831
2023-04-15T09:36:52.235Z,2.8614
2023-04-15T09:37:54.573Z,2.4771
2023-04-15T09:38:56.910Z,2.3351
2023-04-15T09:39:59.271Z,2.1322
2023-04-15T09:41:01.599Z,2.4523
2023-04-15T09:42:03.937Z,2.1761
2023-04-15T09:43:06.294Z,2.1764
2023-04-15T09:44:08.622Z,2.2206
2023-04-15T09:45:10.975Z,2.4050
2023-04-15T09:46:13.309Z,2.3345
2023-04-15T09:47:15.655Z,2.9359
2023-04-15T09:48:18.002Z,2.6920
2023-04-15T09:49:20.384Z,2.6685
2023-04-15T09:50:22.681Z,2.8575
2023-04-15T09:51:25.030Z,2.5676
2023-04-15T09:52:27.419Z,2.6320
2023-04-15T09:53:31.249Z,2.6601
2023-04-15T09:54:32.059Z,2.4606
2023-04-15T09:55:34.408Z,2.5475
2023-04-15T09:56:36.747Z,2.5708
2023-04-15T09:57:39.103Z,2.5042
2023-04-15T09:58:41.448Z,2.1417
2023-04-15T09:59:43.775Z,2.5775
2023-04-15T10:00:46.115Z,2.4340
2023-04-15T10:01:48.588Z,2.3998
2023-04-15T10:02:50.920Z,2.2302
2023-04-15T10:03:53.299Z,2.2582
2023-04-15T10:04:55.479Z,2.5364
2023-04-15T10:05:57.821Z,2.3387
2023-04-15T10:07:00.166Z,2.3199
2023-04-15T10:08:02.520Z,2.0092
2023-04-15T10:09:04.862Z,2.2489
2023-04-15T10:10:07.210Z,2.0306
2023-04-15T10:11:09.538Z,1.9830
2023-04-15T10:12:11.866Z,2.1087
2023-04-15T10:13:14.206Z,2.3558
2023-04-15T10:14:16.557Z,2.3512
2023-04-15T10:15:18.887Z,2.3528
2023-04-15T10:16:21.301Z,2.1821
2023-04-15T10:17:23.620Z,2.6724
2023-04-15T10:18:25.979Z,2.7421
2023-04-15T10:19:28.329Z,2.2652
2023-04-15T10:20:30.657Z,1.9978
2023-04-15T10:21:32.987Z,2.4877
2023-04-15T10:22:35.331Z,2.2196
2023-04-15T10:23:37.667Z,1.9556
2023-04-15T10:24:40.019Z,2.5857
2023-04-15T10:25:42.338Z,2.6008
2023-04-15T10:26:44.686Z,2.8745
2023-04-15T10:27:47.022Z,2.3647
2023-04-15T10:28:49.378Z,2.3146
2023-04-15T10:29:51.704Z,2.6196
2023-04-15T10:30:54.062Z,2.3795
2023-04-15T10:31:56.393Z,2.6457
2023-04-15T10:32:58.778Z,2.6807
2023-04-15T10:34:01.390Z,2.4346
2023-04-15T10:35:03.423Z,3.0188
2023-04-15T10:36:05.744Z,3.0305
2023-04-15T10:37:08.071Z,2.4854
2023-04-15T10:38:10.412Z,2.9682
2023-04-15T10:39:12.751Z,2.5821
2023-04-15T10:40:15.109Z,2.3544
2023-04-15T10:41:19.530Z,2.6407
2023-04-15T10:42:19.801Z,2.7136
2023-04-15T10:43:22.110Z,2.3335
2023-04-15T10:44:24.452Z,2.6297
2023-04-15T10:45:26.801Z,2.6333
2023-04-15T10:46:29.188Z,2.2822
2023-04-15T10:47:31.471Z,2.3032
2023-04-15T10:48:33.796Z,2.3579
2023-04-15T10:49:36.146Z,2.4557
2023-04-15T10:50:38.477Z,2.1135
2023-04-15T10:51:40.809Z,2.6106
2023-04-15T10:52:43.152Z,2.7106
2023-04-15T10:53:45.473Z,2.6092
2023-04-15T10:54:47.817Z,2.2974
2023-04-15T10:55:50.174Z,2.5294
2023-04-15T10:56:52.503Z,2.5053
2023-04-15T10:57:54.828Z,2.9081
2023-04-15T10:58:57.163Z,2.8307
2023-04-15T10:59:59.509Z,2.2838
2023-04-15T11:01:01.934Z,2.4120
2023-04-15T11:02:04.332Z,2.6315
2023-04-15T11:03:06.738Z,2.4716
2023-04-15T11:04:09.021Z,2.7439
2023-04-15T11:05:11.181Z,2.6895
2023-04-15T11:06:13.533Z,2.6585
2023-04-15T11:07:15.856Z,2.5714
2023-04-15T11:08:18.194Z,2.5050
2023-04-15T11:09:20.541Z,2.4790
2023-04-15T11:10:22.873Z,2.5820
2023-04-15T11:11:25.345Z,2.4118
2023-04-15T11:12:27.546Z,2.4873
2023-04-15T11:13:29.882Z,2.3676
2023-04-15T11:14:32.214Z,2.4255
2023-04-15T11:15:34.558Z,2.9154
2023-04-15T11:16:36.928Z,3.1383
2023-04-15T11:17:39.256Z,2.8229
2023-04-15T11:18:41.560Z,2.5140
2023-04-15T11:19:43.893Z,2.6906
2023-04-15T11:20:46.228Z,2.6730
2023-04-15T11:21:48.573Z,2.4627
2023-04-15T11:22:50.928Z,2.4426
2023-04-15T11:23:53.242Z,2.5704
2023-04-15T11:24:55.568Z,2.5160
2023-04-15T11:25:57.928Z,2.7749
2023-04-15T11:27:00.239Z,2.3198
2023-04-15T11:28:02.570Z,2.0291
2023-04-15T11:29:05.147Z,2.0669
2023-04-15T11:30:07.241Z,1.9219
2023-04-15T11:31:09.589Z,1.9365
2023-04-15T11:32:12.103Z,1.8543
2023-04-15T11:33:14.261Z,1.9261
2023-04-15T11:34:16.587Z,1.9816
2023-04-15T11:35:18.929Z,2.0276
2023-04-15T11:36:21.268Z,2.0819
2023-04-15T11:37:23.617Z,2.2389
2023-04-15T11:38:25.960Z,2.2487
2023-04-15T11:39:28.276Z,1.9932
2023-04-15T11:40:30.608Z,2.2946
2023-04-15T11:41:32.960Z,2.1885
2023-04-15T11:42:48.757Z,1.8267
2023-04-15T11:43:37.648Z,1.9179
2023-04-15T11:44:39.967Z,2.0672
2023-04-15T11:45:42.336Z,1.8006
2023-04-15T11:46:45.664Z,1.9370
2023-04-15T11:47:47.025Z,1.9601
2023-04-15T11:48:49.318Z,1.9238
2023-04-15T11:49:51.638Z,2.0083
2023-04-15T11:50:53.990Z,1.8251
2023-04-15T11:51:56.331Z,1.8419
2023-04-15T11:52:58.656Z,1.9723
2023-04-15T11:54:01.113Z,2.2010
2023-04-15T11:55:03.344Z,2.3841
2023-04-15T11:56:05.683Z,2.2470
2023-04-15T11:57:08.005Z,2.3973
2023-04-15T11:58:10.356Z,2.2798
2023-04-15T11:59:12.681Z,2.3554
2023-04-15T12:00:15.016Z,2.3279
2023-04-15T12:01:17.372Z,2.5732
2023-04-15T12:02:19.808Z,2.6767
2023-04-15T12:03:22.174Z,2.7012
2023-04-15T12:04:25.872Z,2.5963
2023-04-15T12:05:26.705Z,2.6413
2023-04-15T12:06:29.053Z,2.9966
2023-04-15T12:07:32.166Z,2.3573
2023-04-15T12:08:33.725Z,2.6329
2023-04-15T12:09:36.067Z,2.4042
2023-04-15T12:10:38.396Z,2.6418
2023-04-15T12:11:40.751Z,2.6560
2023-04-15T12:12:43.078Z,2.2836
2023-04-15T12:13:45.412Z,2.3306
2023-04-15T12:14:47.771Z,2.1661
2023-04-15T12:15:50.122Z,2.4031
2023-04-15T12:16:52.585Z,2.4946
2023-04-15T12:17:54.820Z,2.3115
2023-04-15T12:18:57.118Z,2.1293
2023-04-15T12:19:59.507Z,2.5323
2023-04-15T12:21:01.821Z,2.8835
2023-04-15T12:22:04.142Z,2.6934
2023-04-15T12:23:06.485Z,2.5917
2023-04-15T12:24:08.833Z,2.5404
2023-04-15T12:25:11.158Z,2.7462
2023-04-15T12:26:13.491Z,2.7211
2023-04-15T12:27:15.864Z,2.7106
2023-04-15T12:28:18.180Z,2.6204
2023-04-15T12:29:20.499Z,2.6767
2023-04-15T12:30:22.831Z,2.6224
2023-04-15T12:31:25.231Z,2.7112
2023-04-15T12:32:27.549Z,2.4939
2023-04-15T12:33:29.844Z,2.5871
2023-04-15T12:34:32.184Z,2.8521
2023-04-15T12:35:34.533Z,2.7792
2023-04-15T12:36:36.853Z,3.0339
2023-04-15T12:37:39.225Z,2.8991
2023-04-15T12:38:41.546Z,2.8271
2023-04-15T12:39:43.884Z,2.9025
2023-04-15T12:40:46.224Z,2.6381
2023-04-15T12:41:48.567Z,2.7324
2023-04-15T12:42:50.910Z,2.7245
2023-04-15T12:43:53.286Z,2.7146
2023-04-15T12:44:55.591Z,2.8370
2023-04-15T12:45:57.938Z,2.8687
2023-04-15T12:47:00.534Z,2.7959
2023-04-15T12:48:02.633Z,2.7925
2023-04-15T12:49:04.969Z,3.4330
2023-04-15T12:50:07.291Z,3.0556
2023-04-15T12:51:09.642Z,2.7083
2023-04-15T12:52:11.975Z,2.8711
2023-04-15T12:53:14.316Z,2.9112
2023-04-15T12:54:16.702Z,2.7461
2023-04-15T12:55:18.999Z,2.5693
2023-04-15T12:56:21.345Z,2.8656
2023-04-15T12:57:23.714Z,3.0575